Time;durP1;ratioP1;P1;durP2;ratioP2;P2;SDS_P1;SDS_P2;PMS_P1;PMS_P2;Temp;Humidity;BMP_temperature;BMP_pressure;BME280_temperature;BME280_humidity;BME280_pressure;Samples;Min_cycle;Max_cycle;Signal;HPM_P1;HPM_P2
2021/03/05 00:00:51;;;;;;;20.70;11.52;;;3.50;99.90;;;;;;5048929;28;20116;-46
2021/03/05 00:03:17;;;;;;;20.00;11.23;;;3.50;99.90;;;;;;5049749;28;20688;-46
2021/03/05 00:05:43;;;;;;;24.27;11.43;;;3.50;99.90;;;;;;5049619;28;20037;-44
2021/03/05 00:08:10;;;;;;;20.20;12.23;;;3.50;99.90;;;;;;5049479;28;20063;-49
2021/03/05 00:10:38;;;;;;;20.25;11.63;;;3.50;99.90;;;;;;5049889;28;20029;-44
2021/03/05 00:13:04;;;;;;;21.30;11.93;;;3.40;99.90;;;;;;5059781;28;20467;-44
2021/03/05 00:15:32;;;;;;;18.90;12.05;;;3.50;99.90;;;;;;5049493;28;20440;-44
2021/03/05 00:17:58;;;;;;;18.83;11.38;;;3.50;99.90;;;;;;5053580;28;20025;-46
2021/03/05 00:20:25;;;;;;;20.35;13.00;;;3.50;99.90;;;;;;5069510;28;20032;-45
2021/03/05 00:22:52;;;;;;;20.10;12.52;;;3.40;99.90;;;;;;5048594;28;20036;-45
2021/03/05 00:25:17;;;;;;;19.83;12.55;;;3.50;99.90;;;;;;5048266;28;20029;-46
2021/03/05 00:27:43;;;;;;;21.00;11.75;;;3.50;99.90;;;;;;5054997;28;20454;-45
2021/03/05 00:30:10;;;;;;;20.05;12.23;;;3.50;99.90;;;;;;5069903;28;20090;-44
2021/03/05 00:32:35;;;;;;;17.80;11.25;;;3.40;99.90;;;;;;5069870;28;20032;-45
2021/03/05 00:35:03;;;;;;;18.65;11.15;;;3.40;99.90;;;;;;5069472;28;20081;-44
2021/03/05 00:37:28;;;;;;;17.80;10.43;;;3.40;99.90;;;;;;5069462;28;20470;-46
2021/03/05 00:39:54;;;;;;;19.83;11.60;;;3.40;99.90;;;;;;5069605;28;20060;-47
2021/03/05 00:42:19;;;;;;;18.33;10.45;;;3.30;99.90;;;;;;5069892;28;20082;-45
2021/03/05 00:44:45;;;;;;;18.80;11.15;;;3.40;99.90;;;;;;5052660;28;20025;-45
2021/03/05 00:47:10;;;;;;;20.20;10.70;;;3.30;99.90;;;;;;5049290;28;20021;-44
2021/03/05 00:49:36;;;;;;;19.42;11.57;;;3.30;99.90;;;;;;5049652;28;20037;-46
2021/03/05 00:52:01;;;;;;;19.77;11.05;;;3.20;99.90;;;;;;5049763;28;20494;-43
2021/03/05 00:54:27;;;;;;;21.48;11.73;;;3.10;99.90;;;;;;5049379;28;20052;-46
2021/03/05 00:56:52;;;;;;;18.48;11.15;;;3.00;99.90;;;;;;5049088;28;20033;-44
2021/03/05 00:59:18;;;;;;;20.48;10.75;;;3.00;99.90;;;;;;5049533;28;20033;-44
2021/03/05 01:01:44;;;;;;;20.17;11.52;;;3.00;99.90;;;;;;5049512;28;20616;-44
2021/03/05 01:04:09;;;;;;;26.88;13.13;;;2.90;99.90;;;;;;5049471;28;20021;-46
2021/03/05 01:06:35;;;;;;;26.85;12.77;;;2.90;99.90;;;;;;5047390;28;20122;-45
2021/03/05 01:09:01;;;;;;;22.83;13.13;;;2.80;99.90;;;;;;5049016;28;20429;-45
2021/03/05 01:11:26;;;;;;;22.10;12.45;;;2.80;99.90;;;;;;5049679;28;20032;-43
2021/03/05 01:13:52;;;;;;;23.58;12.45;;;2.80;99.90;;;;;;5048689;28;20029;-45
2021/03/05 01:16:17;;;;;;;27.20;14.15;;;2.80;99.90;;;;;;5052792;28;20029;-45
2021/03/05 01:18:43;;;;;;;26.00;13.55;;;2.80;99.90;;;;;;5053216;28;20033;-44
2021/03/05 01:21:08;;;;;;;23.45;12.68;;;2.80;99.90;;;;;;5053279;28;20079;-44
2021/03/05 01:23:34;;;;;;;21.75;12.25;;;2.80;99.90;;;;;;5053055;28;20021;-45
2021/03/05 01:26:00;;;;;;;20.83;12.48;;;2.80;99.90;;;;;;5052713;28;20029;-44
2021/03/05 01:28:25;;;;;;;22.95;13.30;;;2.80;99.90;;;;;;5053260;28;20104;-44
2021/03/05 01:30:51;;;;;;;21.40;12.88;;;2.90;99.90;;;;;;5053038;28;20462;-43
2021/03/05 01:33:17;;;;;;;21.48;12.23;;;2.90;99.90;;;;;;5053221;28;20647;-44
2021/03/05 01:35:42;;;;;;;20.80;12.85;;;2.90;99.90;;;;;;5051994;28;20111;-44
2021/03/05 01:38:08;;;;;;;23.70;13.43;;;2.90;99.90;;;;;;5052708;28;20060;-46
2021/03/05 01:40:38;;;;;;;22.15;12.77;;;2.90;99.90;;;;;;5052800;28;20040;-46
2021/03/05 01:43:11;;;;;;;21.58;11.95;;;2.90;99.90;;;;;;5052835;28;20028;-46
2021/03/05 01:45:37;;;;;;;19.02;11.40;;;2.90;99.90;;;;;;5050819;28;20128;-45
2021/03/05 01:48:15;;;;;;;25.45;12.90;;;2.90;99.90;;;;;;5052426;28;20021;-43
2021/03/05 01:50:51;;;;;;;20.27;11.15;;;2.90;99.90;;;;;;5052683;28;20114;-44
2021/03/05 01:53:17;;;;;;;25.45;12.95;;;2.90;99.90;;;;;;5052500;28;20044;-43
2021/03/05 01:55:43;;;;;;;23.55;12.63;;;2.90;99.90;;;;;;5051809;28;20029;-44
2021/03/05 01:58:09;;;;;;;22.33;13.23;;;2.90;99.90;;;;;;5052530;28;20486;-44
2021/03/05 02:00:39;;;;;;;22.52;12.35;;;2.90;99.90;;;;;;5050983;28;20021;-43
2021/03/05 02:03:05;;;;;;;;;;;2.80;99.90;;;;;;5055325;28;20028;-43
2021/03/05 02:05:31;;;;;;;23.30;12.23;;;2.90;99.90;;;;;;5051792;28;19908;-45
2021/03/05 02:07:57;;;;;;;22.55;12.45;;;2.80;99.90;;;;;;5057034;28;20055;-43
2021/03/05 02:10:22;;;;;;;23.30;12.90;;;2.80;99.90;;;;;;5072277;28;20119;-45
2021/03/05 02:12:48;;;;;;;26.83;12.70;;;2.80;99.90;;;;;;5072200;28;20115;-44
2021/03/05 02:15:14;;;;;;;22.40;12.05;;;2.80;99.90;;;;;;5071619;28;20234;-43
2021/03/05 02:18:03;;;;;;;22.02;12.90;;;2.70;99.90;;;;;;5065189;28;20056;-43
2021/03/05 02:20:48;;;;;;;24.55;12.27;;;2.70;99.90;;;;;;5052014;28;20120;-43
2021/03/05 02:23:38;;;;;;;22.75;12.20;;;2.70;99.90;;;;;;5051921;28;20067;-45
2021/03/05 02:26:32;;;;;;;21.57;12.17;;;2.70;99.90;;;;;;5051082;28;20511;-44
2021/03/05 02:29:21;;;;;;;20.80;11.43;;;2.60;99.90;;;;;;5052035;28;20118;-45
2021/03/05 02:32:02;;;;;;;19.75;10.57;;;2.50;99.90;;;;;;5051853;28;20116;-43
2021/03/05 02:34:30;;;;;;;18.58;9.55;;;2.50;99.90;;;;;;5051510;28;20029;-45
2021/03/05 02:37:03;;;;;;;18.90;9.27;;;2.50;99.90;;;;;;5049414;28;20067;-44
2021/03/05 02:39:44;;;;;;;16.17;8.70;;;2.50;99.90;;;;;;5050989;28;20690;-44
2021/03/05 02:42:19;;;;;;;19.00;9.75;;;2.40;99.90;;;;;;5051273;28;20029;-43
2021/03/05 02:44:50;;;;;;;18.45;8.88;;;2.40;99.90;;;;;;5051010;28;20025;-43
2021/03/05 02:47:19;;;;;;;15.10;9.32;;;2.40;99.90;;;;;;5051542;28;20021;-43
2021/03/05 02:49:48;;;;;;;18.83;9.18;;;2.30;99.90;;;;;;5051490;28;20417;-43
2021/03/05 02:52:19;;;;;;;19.50;8.60;;;2.40;99.90;;;;;;5051653;28;20025;-43
2021/03/05 02:54:48;;;;;;;16.40;8.30;;;2.30;99.90;;;;;;5050934;28;20140;-44
2021/03/05 02:57:16;;;;;;;14.57;7.68;;;2.30;99.90;;;;;;5051326;28;20025;-43
2021/03/05 02:59:44;;;;;;;18.80;8.63;;;2.20;99.90;;;;;;5051349;28;20025;-44
2021/03/05 03:02:10;;;;;;;13.88;7.80;;;2.20;99.90;;;;;;5051279;28;20052;-44
2021/03/05 03:04:41;;;;;;;11.85;6.60;;;2.10;99.90;;;;;;5051535;28;20433;-44
2021/03/05 03:07:08;;;;;;;12.70;6.03;;;2.10;99.90;;;;;;5050807;28;20025;-46
2021/03/05 03:09:35;;;;;;;14.13;6.25;;;2.10;99.90;;;;;;5051124;28;20036;-44
2021/03/05 03:12:01;;;;;;;13.30;6.25;;;2.00;99.90;;;;;;5050760;28;20024;-43
2021/03/05 03:14:27;;;;;;;10.38;5.82;;;1.90;99.90;;;;;;5051078;28;20025;-45
2021/03/05 03:16:53;;;;;;;14.60;6.13;;;1.80;99.90;;;;;;5050171;28;20626;-45
2021/03/05 03:19:20;;;;;;;12.52;5.32;;;1.80;99.90;;;;;;5050914;28;20488;-44
2021/03/05 03:21:46;;;;;;;12.93;5.90;;;1.70;99.90;;;;;;5050797;28;20032;-45
2021/03/05 03:24:12;;;;;;;11.45;5.45;;;1.70;99.90;;;;;;5050534;28;20358;-45
2021/03/05 03:26:39;;;;;;;15.02;6.15;;;1.60;99.90;;;;;;5050000;28;20032;-46
2021/03/05 03:29:09;;;;;;;15.63;5.65;;;1.60;99.90;;;;;;5050761;28;20493;-44
2021/03/05 03:31:39;;;;;;;12.60;6.45;;;1.50;99.90;;;;;;5050626;28;20116;-44
2021/03/05 03:34:08;;;;;;;13.77;4.95;;;1.40;99.90;;;;;;5050383;28;20112;-45
2021/03/05 03:36:37;;;;;;;11.48;5.22;;;1.40;99.90;;;;;;5049170;28;20143;-44
2021/03/05 03:39:09;;;;;;;8.00;4.43;;;1.30;99.90;;;;;;5050065;28;20104;-44
2021/03/05 03:41:36;;;;;;;8.18;4.22;;;1.30;99.90;;;;;;5050377;28;20056;-44
2021/03/05 03:44:06;;;;;;;12.43;4.43;;;1.20;99.90;;;;;;5050299;28;20495;-45
2021/03/05 03:46:34;;;;;;;9.30;4.35;;;1.10;99.90;;;;;;5049640;28;20028;-46
2021/03/05 03:49:05;;;;;;;9.25;4.25;;;1.10;99.90;;;;;;5050082;28;20038;-44
2021/03/05 03:51:33;;;;;;;9.68;3.90;;;1.00;99.90;;;;;;5049900;28;20025;-44
2021/03/05 03:54:00;;;;;;;8.73;4.50;;;1.00;99.90;;;;;;5049982;28;20090;-49
2021/03/05 03:56:29;;;;;;;14.43;4.85;;;1.00;99.90;;;;;;5049574;28;20742;-45
2021/03/05 03:58:56;;;;;;;10.10;4.32;;;1.00;99.90;;;;;;5050102;28;20079;-43
2021/03/05 04:01:24;;;;;;;13.88;4.15;;;0.90;99.90;;;;;;5050126;28;20021;-43
2021/03/05 04:03:51;;;;;;;4.72;2.75;;;0.80;99.90;;;;;;5050017;28;20075;-46
2021/03/05 04:06:23;;;;;;;9.85;3.80;;;0.70;99.90;;;;;;5049500;28;20029;-45
2021/03/05 04:08:50;;;;;;;8.95;3.83;;;0.70;99.90;;;;;;5049686;28;20017;-44
2021/03/05 04:11:17;;;;;;;10.43;3.88;;;0.70;99.90;;;;;;5049921;28;20036;-43
2021/03/05 04:13:43;;;;;;;10.40;3.13;;;0.60;99.90;;;;;;5048148;28;20028;-45
2021/03/05 04:16:09;;;;;;;14.20;3.90;;;0.60;99.90;;;;;;5049375;28;20033;-46
2021/03/05 04:18:36;;;;;;;12.10;4.88;;;0.60;99.90;;;;;;5049792;28;20109;-48
2021/03/05 04:21:06;;;;;;;6.53;2.92;;;0.60;99.90;;;;;;5049745;28;20098;-45
2021/03/05 04:23:32;;;;;;;11.20;3.53;;;0.50;99.90;;;;;;5049362;28;20028;-44
2021/03/05 04:25:58;;;;;;;8.95;3.05;;;0.50;99.90;;;;;;5049072;28;20047;-44
2021/03/05 04:28:23;;;;;;;4.43;2.50;;;0.50;99.90;;;;;;5048194;28;20021;-46
2021/03/05 04:30:49;;;;;;;6.75;2.65;;;0.50;99.90;;;;;;5049263;28;20387;-44
2021/03/05 04:33:14;;;;;;;13.95;2.78;;;0.50;99.90;;;;;;5049461;28;20390;-45
2021/03/05 04:35:40;;;;;;;11.40;3.60;;;0.50;99.90;;;;;;5048933;28;20033;-44
2021/03/05 04:38:05;;;;;;;5.90;2.63;;;0.40;99.90;;;;;;5049432;28;20035;-44
2021/03/05 04:40:31;;;;;;;9.40;2.88;;;0.40;99.90;;;;;;5049019;28;20032;-44
2021/03/05 04:42:57;;;;;;;9.45;3.22;;;0.40;99.90;;;;;;5049315;28;20023;-45
2021/03/05 04:45:22;;;;;;;10.32;3.90;;;0.40;99.90;;;;;;5048974;28;20025;-46
2021/03/05 04:47:48;;;;;;;9.50;2.75;;;0.40;99.90;;;;;;5048671;28;20032;-47
2021/03/05 04:50:13;;;;;;;9.63;2.85;;;0.40;99.90;;;;;;5052849;28;20033;-43
2021/03/05 04:52:39;;;;;;;8.48;3.17;;;0.40;99.90;;;;;;5053097;28;20075;-44
2021/03/05 04:55:05;;;;;;;8.13;3.05;;;0.40;99.90;;;;;;5060588;28;20056;-44
2021/03/05 04:57:31;;;;;;;7.28;3.13;;;0.30;99.90;;;;;;5066976;28;20032;-44
2021/03/05 04:59:56;;;;;;;10.07;3.33;;;0.30;99.90;;;;;;5072471;28;20500;-45
2021/03/05 05:02:22;;;;;;;6.20;2.80;;;0.20;99.90;;;;;;5072177;28;20446;-44
2021/03/05 05:04:47;;;;;;;9.80;3.25;;;0.20;99.90;;;;;;5071932;28;20028;-44
2021/03/05 05:07:13;;;;;;;12.32;3.17;;;0.20;99.90;;;;;;5071407;28;20035;-44
2021/03/05 05:09:38;;;;;;;10.52;3.17;;;0.20;99.90;;;;;;5071803;28;20192;-44
2021/03/05 05:12:04;;;;;;;5.28;2.95;;;0.20;99.90;;;;;;5067019;28;20032;-44
2021/03/05 05:14:30;;;;;;;7.05;3.53;;;0.20;99.90;;;;;;5051270;28;20383;-44
2021/03/05 05:16:55;;;;;;;7.60;3.00;;;0.20;99.90;;;;;;5049897;28;20523;-44
2021/03/05 05:19:20;;;;;;;9.98;3.40;;;0.20;99.90;;;;;;5050462;28;20499;-44
2021/03/05 05:21:46;;;;;;;10.07;3.58;;;0.20;99.90;;;;;;5051665;28;20029;-44
2021/03/05 05:24:11;;;;;;;17.40;2.88;;;0.10;99.90;;;;;;5051537;28;20029;-43
2021/03/05 05:26:37;;;;;;;12.00;3.35;;;0.10;99.90;;;;;;5050857;28;20021;-44
2021/03/05 05:29:03;;;;;;;11.35;3.78;;;0.10;99.90;;;;;;5051092;28;20420;-44
2021/03/05 05:31:28;;;;;;;11.02;3.92;;;0.00;99.90;;;;;;5051294;28;20437;-42
2021/03/05 05:33:53;;;;;;;6.13;3.38;;;0.00;99.90;;;;;;5051301;28;20033;-43
2021/03/05 05:36:19;;;;;;;13.00;3.72;;;0.00;99.90;;;;;;5055548;28;20025;-44
2021/03/05 05:38:45;;;;;;;10.45;3.80;;;0.00;99.90;;;;;;5054765;28;20052;-46
2021/03/05 05:41:10;;;;;;;13.00;3.85;;;0.00;99.90;;;;;;5056760;28;20070;-43
2021/03/05 05:43:36;;;;;;;11.60;3.92;;;0.00;99.90;;;;;;5052156;28;20086;-45
2021/03/05 05:46:07;;;;;;;12.30;3.80;;;0.00;99.90;;;;;;5051329;28;20033;-45
2021/03/05 05:48:37;;;;;;;6.32;3.42;;;-0.10;99.90;;;;;;5053823;28;20033;-44
2021/03/05 05:51:17;;;;;;;9.18;3.58;;;-0.10;99.90;;;;;;5072284;28;20501;-44
2021/03/05 05:53:45;;;;;;;10.27;4.05;;;-0.10;99.90;;;;;;5072458;28;20037;-46
2021/03/05 05:56:19;;;;;;;11.43;3.80;;;-0.10;99.90;;;;;;5071985;28;20083;-45
2021/03/05 05:58:45;;;;;;;10.77;3.95;;;-0.10;99.90;;;;;;5072210;28;20025;-46
2021/03/05 06:01:11;;;;;;;14.15;4.10;;;-0.20;99.90;;;;;;5067115;28;20036;-45
2021/03/05 06:03:37;;;;;;;10.60;3.10;;;-0.20;99.90;;;;;;5052308;28;20032;-45
2021/03/05 06:06:03;;;;;;;13.13;3.53;;;-0.20;99.90;;;;;;5054365;28;20021;-46
2021/03/05 06:08:29;;;;;;;11.30;4.60;;;-0.20;99.90;;;;;;5064154;28;20402;-47
2021/03/05 06:10:56;;;;;;;7.72;4.20;;;-0.20;99.90;;;;;;5052277;28;20117;-46
2021/03/05 06:13:25;;;;;;;9.18;3.55;;;-0.20;99.90;;;;;;5051071;28;20086;-45
2021/03/05 06:16:14;;;;;;;10.23;4.07;;;-0.20;99.90;;;;;;5050098;28;20025;-46
2021/03/05 06:18:39;;;;;;;24.40;5.13;;;-0.20;99.90;;;;;;5050710;28;20049;-46
2021/03/05 06:21:05;;;;;;;6.80;3.50;;;-0.10;99.90;;;;;;5050696;28;20060;-48
2021/03/05 06:23:31;;;;;;;8.85;4.22;;;-0.20;99.90;;;;;;5050672;28;20754;-47
2021/03/05 06:26:00;;;;;;;9.68;4.65;;;-0.10;99.90;;;;;;5048633;28;20029;-46
2021/03/05 06:28:26;;;;;;;10.45;4.45;;;-0.10;99.90;;;;;;5050183;28;20094;-45
2021/03/05 06:30:52;;;;;;;7.95;3.70;;;-0.10;99.90;;;;;;5050264;28;20041;-46
2021/03/05 06:33:23;;;;;;;8.50;4.15;;;-0.10;99.90;;;;;;5050567;28;20448;-46
2021/03/05 06:35:49;;;;;;;12.10;4.10;;;-0.10;99.90;;;;;;5050244;28;20029;-45
2021/03/05 06:38:42;;;;;;;13.85;4.10;;;-0.10;99.90;;;;;;5049397;28;20029;-45
2021/03/05 06:41:23;;;;;;;7.50;3.70;;;-0.10;99.90;;;;;;5050500;28;20498;-44
2021/03/05 06:44:02;;;;;;;9.05;3.75;;;-0.10;99.90;;;;;;5050545;28;20181;-47
2021/03/05 06:46:39;;;;;;;8.45;3.88;;;-0.10;99.90;;;;;;5050514;28;20100;-46
2021/03/05 06:49:11;;;;;;;13.02;4.30;;;0.00;99.90;;;;;;5050490;28;20025;-46
2021/03/05 06:51:38;;;;;;;8.70;3.55;;;0.00;99.90;;;;;;5050331;28;20025;-45
2021/03/05 06:54:10;;;;;;;13.00;3.85;;;0.00;99.90;;;;;;5048853;28;20032;-46
2021/03/05 06:56:41;;;;;;;10.82;3.90;;;0.00;99.90;;;;;;5049534;28;20052;-45
2021/03/05 06:59:18;;;;;;;12.10;4.00;;;0.00;99.90;;;;;;5049513;28;20033;-46
2021/03/05 07:01:57;;;;;;;11.18;3.97;;;0.10;99.90;;;;;;5049860;28;20104;-45
2021/03/05 07:04:33;;;;;;;10.38;3.88;;;0.00;99.90;;;;;;5049817;28;20112;-47
2021/03/05 07:07:10;;;;;;;12.25;3.60;;;0.10;99.90;;;;;;5049194;28;20375;-47
2021/03/05 07:09:41;;;;;;;11.00;3.67;;;0.10;99.90;;;;;;5049863;28;20048;-46
2021/03/05 07:12:08;;;;;;;11.07;4.57;;;0.10;99.90;;;;;;5048455;28;20508;-47
2021/03/05 07:14:35;;;;;;;12.25;3.60;;;0.10;99.90;;;;;;5048893;28;20505;-46
2021/03/05 07:17:01;;;;;;;9.57;3.83;;;0.20;99.90;;;;;;5049101;28;20028;-46
2021/03/05 07:19:29;;;;;;;9.95;4.43;;;0.20;99.90;;;;;;5049663;28;20036;-48
2021/03/05 07:21:56;;;;;;;10.15;4.18;;;0.20;99.90;;;;;;5049570;28;20379;-45
2021/03/05 07:24:23;;;;;;;13.60;3.75;;;0.20;99.90;;;;;;5049486;28;20155;-47
2021/03/05 07:26:53;;;;;;;12.02;3.28;;;0.30;99.90;;;;;;5049228;28;20119;-45
2021/03/05 07:29:21;;;;;;;6.70;3.87;;;0.30;99.90;;;;;;5047844;28;20031;-45
2021/03/05 07:31:57;;;;;;;12.43;5.15;;;0.40;99.90;;;;;;5049202;28;20059;-44
2021/03/05 07:34:24;;;;;;;10.93;4.30;;;0.40;99.90;;;;;;5049252;28;20102;-46
2021/03/05 07:36:52;;;;;;;11.75;3.90;;;0.50;99.90;;;;;;5049019;28;20124;-49
2021/03/05 07:39:25;;;;;;;14.95;5.60;;;0.60;99.90;;;;;;5055234;28;20016;-46
2021/03/05 07:42:13;;;;;;;9.02;4.13;;;0.60;99.90;;;;;;5059020;28;20044;-47
2021/03/05 07:44:38;;;;;;;11.98;4.60;;;0.70;99.90;;;;;;5013005;28;20042;-45
2021/03/05 07:47:11;;;;;;;12.48;4.15;;;0.80;99.90;;;;;;5006628;28;20388;-45
2021/03/05 07:49:38;;;;;;;10.40;4.13;;;0.90;99.90;;;;;;5031836;28;20040;-48
2021/03/05 07:52:06;;;;;;;12.32;4.45;;;0.80;99.90;;;;;;5048895;28;20337;-46
2021/03/05 07:54:40;;;;;;;11.85;3.38;;;0.90;99.90;;;;;;5048836;28;20025;-45
2021/03/05 07:57:29;;;;;;;11.00;4.30;;;0.90;99.90;;;;;;5048295;28;20100;-45
2021/03/05 07:59:57;;;;;;;8.50;3.78;;;1.00;99.90;;;;;;5041911;28;20048;-44
2021/03/05 08:02:23;;;;;;;9.38;3.13;;;1.10;99.90;;;;;;5048658;28;20029;-45
2021/03/05 08:05:04;;;;;;;8.10;3.47;;;1.20;99.90;;;;;;5048802;28;20025;-45
2021/03/05 08:07:32;;;;;;;11.57;4.22;;;1.40;99.90;;;;;;5048755;28;20017;-45
2021/03/05 08:09:58;;;;;;;11.70;4.18;;;1.60;99.90;;;;;;5047386;28;20045;-45
2021/03/05 08:15:12;;;;;;;6.60;3.20;;;1.70;99.90;;;;;;5047346;28;20032;-47
2021/03/05 08:17:43;;;;;;;10.20;3.45;;;1.80;99.90;;;;;;5048573;28;20021;-48
2021/03/05 08:20:28;;;;;;;6.35;3.28;;;1.80;99.90;;;;;;5048641;28;20040;-45
2021/03/05 08:23:01;;;;;;;6.72;3.15;;;2.00;99.90;;;;;;5036381;28;20025;-45
2021/03/05 08:25:28;;;;;;;7.10;3.45;;;2.20;99.90;;;;;;5047899;28;20021;-45
2021/03/05 08:27:54;;;;;;;9.98;3.25;;;2.30;99.90;;;;;;5048396;28;20021;-46
2021/03/05 08:30:40;;;;;;;8.93;3.40;;;2.30;99.90;;;;;;5048102;28;20441;-45
2021/03/05 08:33:25;;;;;;;10.25;3.20;;;2.30;99.90;;;;;;5048428;28;20025;-45
2021/03/05 08:35:50;;;;;;;5.47;2.85;;;2.30;99.90;;;;;;5047600;28;20071;-44
2021/03/05 08:38:19;;;;;;;8.85;3.63;;;2.40;99.90;;;;;;5048454;28;20359;-45
2021/03/05 08:40:45;;;;;;;11.90;3.25;;;2.50;99.90;;;;;;5047013;28;20121;-45
2021/03/05 08:43:10;;;;;;;6.13;2.97;;;2.80;99.90;;;;;;5048454;28;20104;-47
2021/03/05 08:46:09;;;;;;;6.80;3.53;;;2.90;99.90;;;;;;5049906;28;20067;-45
2021/03/05 08:48:40;;;;;;;7.07;2.80;;;3.10;99.90;;;;;;5022698;28;20183;-45
2021/03/05 08:51:21;;;;;;;7.55;2.95;;;3.20;99.90;;;;;;5047175;28;20061;-45
2021/03/05 08:53:54;;;;;;;7.68;3.15;;;3.40;99.90;;;;;;5056867;28;20094;-44
2021/03/05 08:56:34;;;;;;;12.52;2.92;;;3.50;99.90;;;;;;5042083;28;20033;-45
2021/03/05 08:59:05;;;;;;;5.97;2.88;;;3.80;99.90;;;;;;5067063;28;20657;-46
2021/03/05 09:01:44;;;;;;;10.30;3.03;;;4.00;99.90;;;;;;5069644;28;20039;-46
2021/03/05 09:04:14;;;;;;;9.40;3.88;;;4.00;99.90;;;;;;5060516;28;20390;-45
2021/03/05 09:06:55;;;;;;;10.83;3.37;;;4.40;99.90;;;;;;5055720;28;20032;-45
2021/03/05 09:09:30;;;;;;;9.05;3.28;;;4.60;99.90;;;;;;5068224;28;20635;-45
2021/03/05 09:12:06;;;;;;;9.30;3.70;;;5.00;99.90;;;;;;5050982;28;20040;-45
2021/03/05 09:14:32;;;;;;;10.18;3.20;;;5.00;99.90;;;;;;5046895;28;20017;-44
2021/03/05 09:17:02;;;;;;;7.78;2.92;;;5.60;99.90;;;;;;5047133;28;20413;-45
2021/03/05 09:19:46;;;;;;;8.73;2.72;;;6.30;99.90;;;;;;5047230;28;20104;-45
2021/03/05 09:22:20;;;;;;;6.00;2.40;;;8.10;99.90;;;;;;5055411;28;20037;-46
2021/03/05 09:25:05;;;;;;;6.35;2.20;;;9.80;93.90;;;;;;5060405;28;20036;-47
2021/03/05 09:27:32;;;;;;;5.80;2.13;;;11.80;82.00;;;;;;5055261;28;20028;-45
2021/03/05 09:30:00;;;;;;;7.53;3.05;;;13.70;66.70;;;;;;5049059;28;20075;-46
2021/03/05 09:32:26;;;;;;;6.45;2.35;;;15.00;58.30;;;;;;5054362;28;20559;-46
2021/03/05 09:34:59;;;;;;;6.88;2.50;;;14.90;57.60;;;;;;5045388;28;20276;-46
2021/03/05 09:37:27;;;;;;;7.60;2.58;;;15.60;53.10;;;;;;5065934;28;20078;-46
2021/03/05 09:39:58;;;;;;;6.65;2.20;;;16.60;51.60;;;;;;5050265;28;20025;-46
2021/03/05 09:42:44;;;;;;;6.50;2.47;;;17.50;49.70;;;;;;5052885;28;20021;-45
2021/03/05 09:45:11;;;;;;;8.77;3.40;;;18.40;46.60;;;;;;5060017;28;20017;-45
2021/03/05 09:47:47;;;;;;;5.70;2.35;;;18.80;43.10;;;;;;5057883;28;20036;-47
2021/03/05 09:50:32;;;;;;;3.30;1.90;;;18.90;42.40;;;;;;5061655;28;20106;-46
2021/03/05 09:52:57;;;;;;;7.13;2.10;;;19.30;43.10;;;;;;5089328;28;20030;-46
2021/03/05 09:55:30;;;;;;;3.88;2.00;;;19.60;42.30;;;;;;5089918;28;20024;-46
2021/03/05 09:58:10;;;;;;;5.07;1.80;;;20.10;42.10;;;;;;5090283;28;20020;-46
2021/03/05 10:00:37;;;;;;;5.70;1.90;;;19.20;39.60;;;;;;5090171;28;20459;-46
2021/03/05 10:03:07;;;;;;;6.53;1.80;;;19.90;41.00;;;;;;5089826;28;20026;-46
2021/03/05 10:05:35;;;;;;;4.38;1.95;;;20.40;40.00;;;;;;5087861;28;20074;-45
2021/03/05 10:08:19;;;;;;;3.53;1.70;;;19.80;39.10;;;;;;5068191;28;20024;-46
2021/03/05 10:10:59;;;;;;;6.47;1.85;;;19.00;39.80;;;;;;5069975;28;20021;-45
2021/03/05 10:13:51;;;;;;;5.43;1.90;;;19.00;41.70;;;;;;5069468;28;20050;-47
2021/03/05 10:16:23;;;;;;;5.00;1.85;;;19.40;40.80;;;;;;5050703;28;20027;-46
2021/03/05 10:18:51;;;;;;;4.60;1.63;;;20.20;37.60;;;;;;5048054;28;20060;-46
2021/03/05 10:21:18;;;;;;;2.10;1.40;;;20.20;37.70;;;;;;5047595;28;20175;-46
2021/03/05 10:23:44;;;;;;;2.38;1.25;;;20.30;37.90;;;;;;5051500;28;20429;-46
2021/03/05 10:26:27;;;;;;;3.15;1.38;;;20.70;36.60;;;;;;5067329;28;20563;-46
2021/03/05 10:29:04;;;;;;;2.33;1.60;;;19.30;38.00;;;;;;5059519;28;20486;-46
2021/03/05 10:31:44;;;;;;;2.80;1.50;;;19.80;37.60;;;;;;5066913;28;20044;-45
2021/03/05 10:34:29;;;;;;;2.90;1.25;;;19.90;36.70;;;;;;5067383;28;20469;-45
2021/03/05 10:36:58;;;;;;;5.65;1.48;;;19.90;36.90;;;;;;5063644;28;20024;-45
2021/03/05 10:39:25;;;;;;;1.88;1.30;;;19.40;35.40;;;;;;5054514;28;20061;-45
2021/03/05 10:41:52;;;;;;;4.07;0.90;;;17.20;37.30;;;;;;5062328;28;20119;-44
2021/03/05 10:44:19;;;;;;;2.63;1.17;;;17.40;40.40;;;;;;5069230;28;20021;-44
2021/03/05 10:46:44;;;;;;;4.28;1.10;;;16.30;38.90;;;;;;5049367;28;20356;-45
2021/03/05 10:49:10;;;;;;;2.63;1.13;;;17.50;39.40;;;;;;5055376;28;20021;-45
2021/03/05 10:51:35;;;;;;;4.07;1.20;;;19.00;36.60;;;;;;5065606;28;20077;-46
2021/03/05 10:54:01;;;;;;;2.05;1.02;;;20.40;34.60;;;;;;5067757;28;20028;-47
2021/03/05 10:56:27;;;;;;;2.50;1.20;;;21.30;33.00;;;;;;5068852;28;20070;-45
2021/03/05 10:58:54;;;;;;;5.63;1.88;;;21.80;33.90;;;;;;5067604;28;20386;-46
2021/03/05 11:01:19;;;;;;;4.95;1.33;;;21.10;32.30;;;;;;5068570;28;20029;-46
2021/03/05 11:03:45;;;;;;;4.20;1.13;;;21.30;32.30;;;;;;5065319;28;20047;-46
2021/03/05 11:06:10;;;;;;;1.23;0.90;;;21.40;33.60;;;;;;5057210;28;20036;-46
2021/03/05 11:08:36;;;;;;;2.67;1.20;;;21.20;31.80;;;;;;5069058;28;20028;-46
2021/03/05 11:11:01;;;;;;;2.42;1.10;;;22.00;30.80;;;;;;5068180;28;20032;-47
2021/03/05 11:13:27;;;;;;;2.75;1.13;;;21.70;31.90;;;;;;5069090;28;20416;-45
2021/03/05 11:15:52;;;;;;;2.75;1.15;;;21.80;30.80;;;;;;5055159;28;20033;-46
2021/03/05 11:18:18;;;;;;;1.88;1.25;;;21.20;34.50;;;;;;5053511;28;20580;-45
2021/03/05 11:20:43;;;;;;;2.55;1.10;;;21.00;33.00;;;;;;5053651;28;20112;-49
2021/03/05 11:23:08;;;;;;;2.50;1.33;;;21.70;31.20;;;;;;5051270;28;20301;-45
2021/03/05 11:25:34;;;;;;;5.60;1.42;;;19.80;32.70;;;;;;5048117;28;20036;-47
2021/03/05 11:28:00;;;;;;;7.00;1.40;;;18.10;35.70;;;;;;5048575;28;20021;-47
2021/03/05 11:30:26;;;;;;;6.22;1.65;;;17.50;36.70;;;;;;5048483;28;20403;-45
2021/03/05 11:32:51;;;;;;;2.72;1.48;;;17.10;37.10;;;;;;5048022;28;20035;-48
2021/03/05 11:35:17;;;;;;;4.93;1.00;;;18.10;36.90;;;;;;5047903;28;20056;-46
2021/03/05 11:37:42;;;;;;;4.00;1.00;;;18.10;35.90;;;;;;5048739;28;20040;-46
2021/03/05 11:40:08;;;;;;;3.10;1.00;;;18.40;35.80;;;;;;5048487;28;20063;-45
2021/03/05 11:42:35;;;;;;;4.10;0.90;;;18.80;35.20;;;;;;5055282;28;20032;-47
2021/03/05 11:45:04;;;;;;;4.70;1.45;;;19.00;34.80;;;;;;5063032;28;20039;-45
2021/03/05 11:47:31;;;;;;;1.42;0.98;;;19.50;33.60;;;;;;5065936;28;20050;-45
2021/03/05 11:49:56;;;;;;;2.22;1.10;;;19.90;34.20;;;;;;5064848;28;20040;-45
2021/03/05 11:52:22;;;;;;;2.10;0.90;;;19.50;32.00;;;;;;5051096;28;20025;-47
2021/03/05 11:54:48;;;;;;;2.42;0.95;;;19.30;32.60;;;;;;5048596;28;20591;-46
2021/03/05 11:57:13;;;;;;;2.20;1.05;;;20.20;31.80;;;;;;5047821;28;20029;-45
2021/03/05 11:59:39;;;;;;;2.05;1.02;;;20.40;31.40;;;;;;5048021;28;20029;-46
2021/03/05 12:02:04;;;;;;;2.75;0.85;;;20.60;30.30;;;;;;5047665;28;20039;-46
2021/03/05 12:04:30;;;;;;;2.65;1.30;;;20.20;30.20;;;;;;5046589;28;20025;-48
2021/03/05 12:06:55;;;;;;;3.72;0.98;;;20.30;29.20;;;;;;5047097;28;20285;-47
2021/03/05 12:09:20;;;;;;;1.13;0.80;;;19.50;30.40;;;;;;5046942;28;20020;-46
2021/03/05 12:11:46;;;;;;;1.42;0.73;;;19.40;32.60;;;;;;5048071;28;20494;-49
2021/03/05 12:14:11;;;;;;;2.13;1.08;;;19.40;33.40;;;;;;5047823;28;20029;-46
2021/03/05 12:16:37;;;;;;;2.22;1.15;;;19.30;30.30;;;;;;5046682;28;20029;-46
2021/03/05 12:19:03;;;;;;;1.52;1.20;;;19.50;30.40;;;;;;5047933;28;20100;-47
2021/03/05 12:21:29;;;;;;;2.75;1.10;;;20.20;28.30;;;;;;5047703;28;20092;-47
2021/03/05 12:23:54;;;;;;;2.53;0.85;;;19.80;30.10;;;;;;5047692;28;20017;-46
2021/03/05 12:26:20;;;;;;;1.98;0.90;;;19.90;29.60;;;;;;5062024;28;20113;-47
2021/03/05 12:28:47;;;;;;;1.67;0.93;;;20.30;29.70;;;;;;5068312;28;20508;-48
2021/03/05 12:31:12;;;;;;;0.80;0.60;;;20.10;29.30;;;;;;5066836;28;20137;-45
2021/03/05 12:33:38;;;;;;;3.15;1.00;;;19.70;28.40;;;;;;5046844;28;20702;-46
2021/03/05 12:36:04;;;;;;;1.65;0.80;;;18.70;29.90;;;;;;5045290;28;20029;-45
2021/03/05 12:38:29;;;;;;;1.35;1.00;;;18.40;31.80;;;;;;5047072;28;20033;-47
2021/03/05 12:40:55;;;;;;;2.95;0.77;;;17.50;33.80;;;;;;5047440;28;20032;-45
2021/03/05 12:43:20;;;;;;;2.25;1.00;;;17.30;32.80;;;;;;5047730;28;20025;-45
2021/03/05 12:45:49;;;;;;;2.15;0.90;;;16.80;33.50;;;;;;5046687;28;20112;-46
2021/03/05 12:48:15;;;;;;;1.20;0.73;;;16.60;31.50;;;;;;5047825;28;20044;-46
2021/03/05 12:50:40;;;;;;;2.92;0.90;;;16.30;34.10;;;;;;5051310;28;20032;-45
2021/03/05 12:53:06;;;;;;;2.80;0.70;;;15.80;33.90;;;;;;5063082;28;20535;-45
2021/03/05 12:55:31;;;;;;;1.65;0.77;;;15.50;34.60;;;;;;5067337;28;20094;-47
2021/03/05 12:57:57;;;;;;;1.45;1.02;;;15.20;35.00;;;;;;5067688;28;20086;-45